Time;durP1;ratioP1;P1;durP2;ratioP2;P2;SDS_P1;SDS_P2;PMS_P1;PMS_P2;Temp;Humidity;BMP_temperature;BMP_pressure;BME280_temperature;BME280_humidity;BME280_pressure;Samples;Min_cycle;Max_cycle;Signal;HPM_P1;HPM_P2
2022/08/07 00:00:56;;;;;;;0.30;0.30;;;24.10;50.40;;;;;;6222720;28;20485;-68
2022/08/07 00:03:57;;;;;;;0.55;0.40;;;24.10;50.40;;;;;;6196942;28;20493;-68
2022/08/07 00:06:57;;;;;;;0.32;0.30;;;24.10;51.00;;;;;;6244748;28;20052;-68
2022/08/07 00:09:58;;;;;;;0.63;0.40;;;24.10;50.40;;;;;;6235812;28;20071;-68
2022/08/07 00:13:02;;;;;;;0.70;0.50;;;24.10;50.50;;;;;;6220089;28;20065;-67
2022/08/07 00:16:04;;;;;;;0.50;0.40;;;24.10;50.40;;;;;;6236407;28;20508;-67
2022/08/07 00:19:04;;;;;;;0.50;0.30;;;24.10;50.60;;;;;;6244804;28;20032;-68
2022/08/07 00:22:05;;;;;;;0.35;0.35;;;24.10;50.50;;;;;;6220210;28;20022;-67
2022/08/07 00:25:07;;;;;;;0.38;0.38;;;24.10;50.50;;;;;;6226891;28;20053;-67
2022/08/07 00:28:07;;;;;;;0.30;0.30;;;24.10;51.30;;;;;;6244202;28;20442;-67
2022/08/07 00:31:09;;;;;;;0.20;0.20;;;24.10;50.50;;;;;;6228499;28;20076;-67
2022/08/07 00:34:10;;;;;;;0.40;0.40;;;24.10;50.50;;;;;;6219653;28;20358;-67
2022/08/07 00:37:10;;;;;;;0.40;0.40;;;24.10;50.50;;;;;;6219705;28;20026;-68
2022/08/07 00:40:12;;;;;;;0.28;0.22;;;24.10;50.50;;;;;;6225095;28;20503;-68
2022/08/07 00:43:13;;;;;;;1.13;0.52;;;24.10;50.50;;;;;;6244272;28;20022;-68
2022/08/07 00:46:14;;;;;;;0.40;0.40;;;24.10;50.70;;;;;;6229876;28;20385;-68
2022/08/07 00:49:15;;;;;;;0.63;0.40;;;24.10;50.60;;;;;;6219385;28;20037;-68
2022/08/07 00:52:16;;;;;;;0.30;0.30;;;24.10;50.50;;;;;;6240562;28;20202;-68
2022/08/07 00:55:16;;;;;;;0.52;0.35;;;24.00;50.50;;;;;;6239137;28;20076;-67
2022/08/07 00:58:19;;;;;;;0.30;0.30;;;24.10;50.70;;;;;;6219275;28;20018;-68
2022/08/07 01:01:20;;;;;;;0.30;0.30;;;24.10;50.60;;;;;;6217322;28;20552;-67
2022/08/07 01:04:21;;;;;;;0.45;0.40;;;24.10;50.60;;;;;;6218864;28;20032;-68
2022/08/07 01:07:22;;;;;;;0.38;0.30;;;24.10;50.60;;;;;;6239072;28;20488;-67
2022/08/07 01:10:22;;;;;;;0.90;0.40;;;24.10;50.60;;;;;;6240251;28;20033;-68
2022/08/07 01:13:23;;;;;;;0.75;0.50;;;24.10;50.80;;;;;;6218904;28;20029;-68
2022/08/07 01:16:24;;;;;;;0.30;0.30;;;24.00;50.50;;;;;;6229621;28;20014;-67
2022/08/07 01:19:28;;;;;;;0.47;0.32;;;24.00;50.50;;;;;;6243080;28;20542;-68
2022/08/07 01:22:29;;;;;;;0.40;0.40;;;24.00;50.60;;;;;;6224452;28;20105;-68
2022/08/07 01:25:31;;;;;;;0.30;0.30;;;24.00;50.60;;;;;;6218027;28;20021;-68
2022/08/07 01:28:32;;;;;;;0.45;0.40;;;24.00;50.60;;;;;;6218309;28;20083;-68
2022/08/07 01:31:33;;;;;;;0.30;0.30;;;24.00;50.70;;;;;;6224166;28;20057;-68
2022/08/07 01:34:34;;;;;;;0.50;0.40;;;24.00;50.70;;;;;;6218421;28;20030;-68
2022/08/07 01:37:36;;;;;;;0.68;0.50;;;24.00;50.70;;;;;;6218045;28;20026;-68
2022/08/07 01:40:38;;;;;;;0.32;0.30;;;24.00;50.70;;;;;;6219266;28;20038;-67
2022/08/07 01:43:39;;;;;;;0.88;0.40;;;24.00;50.80;;;;;;6242983;28;20028;-68
2022/08/07 01:46:40;;;;;;;0.30;0.30;;;24.00;50.80;;;;;;6234046;28;20380;-68
2022/08/07 01:49:41;;;;;;;0.40;0.40;;;24.00;50.90;;;;;;6219002;28;20022;-68
2022/08/07 01:52:44;;;;;;;1.52;0.50;;;24.00;50.80;;;;;;6236279;28;20115;-68
2022/08/07 01:55:54;;;;;;;0.52;0.40;;;24.00;50.70;;;;;;6242507;28;20450;-68
2022/08/07 01:59:04;;;;;;;0.55;0.40;;;24.00;50.80;;;;;;6193911;28;20604;-68
2022/08/07 02:02:13;;;;;;;0.95;0.40;;;24.00;50.70;;;;;;6221808;28;20441;-66
2022/08/07 02:05:26;;;;;;;0.47;0.45;;;24.00;50.80;;;;;;6242787;28;20653;-68
2022/08/07 02:08:29;;;;;;;0.65;0.47;;;24.00;50.80;;;;;;6221911;28;20041;-68
2022/08/07 02:11:37;;;;;;;0.52;0.40;;;24.00;50.80;;;;;;6222485;28;20025;-68
2022/08/07 02:14:39;;;;;;;0.40;0.32;;;24.00;50.80;;;;;;6242852;28;20018;-68
2022/08/07 02:17:42;;;;;;;0.47;0.40;;;24.00;50.90;;;;;;6229749;28;20365;-68
2022/08/07 02:20:44;;;;;;;0.40;0.40;;;24.00;50.90;;;;;;6218332;28;20029;-68
2022/08/07 02:23:46;;;;;;;0.73;0.45;;;24.00;50.90;;;;;;6239012;28;20049;-68
2022/08/07 02:26:48;;;;;;;0.45;0.45;;;24.00;50.90;;;;;;6237885;28;20124;-68
2022/08/07 02:29:50;;;;;;;0.40;0.30;;;24.00;50.90;;;;;;6232647;28;20084;-68
2022/08/07 02:32:51;;;;;;;0.35;0.35;;;24.00;50.90;;;;;;6217613;28;20611;-68
2022/08/07 02:35:54;;;;;;;0.30;0.30;;;24.00;50.90;;;;;;6217999;28;20048;-68
2022/08/07 02:38:56;;;;;;;0.52;0.43;;;24.00;51.00;;;;;;6237787;28;20022;-68
2022/08/07 02:41:57;;;;;;;0.82;0.55;;;24.00;51.00;;;;;;6239126;28;20101;-68
2022/08/07 02:45:00;;;;;;;0.70;0.50;;;24.00;51.00;;;;;;6218631;28;20080;-68
2022/08/07 02:48:00;;;;;;;0.40;0.40;;;24.00;50.90;;;;;;6230784;28;20119;-68
2022/08/07 02:51:07;;;;;;;0.43;0.30;;;24.00;51.00;;;;;;6243319;28;20029;-68
2022/08/07 02:54:10;;;;;;;0.63;0.40;;;24.00;51.00;;;;;;6225501;28;20474;-67
2022/08/07 02:57:14;;;;;;;1.13;0.55;;;24.00;51.10;;;;;;6225524;28;20587;-68
2022/08/07 03:00:15;;;;;;;0.63;0.50;;;24.00;51.20;;;;;;6243664;28;20029;-68
2022/08/07 03:03:18;;;;;;;0.60;0.43;;;24.00;51.10;;;;;;6222404;28;20030;-68
2022/08/07 03:06:20;;;;;;;0.75;0.43;;;24.00;51.00;;;;;;6246534;28;20021;-68
2022/08/07 03:09:21;;;;;;;0.57;0.43;;;24.00;51.10;;;;;;6227911;28;20112;-68
2022/08/07 03:12:22;;;;;;;0.98;0.50;;;24.00;51.10;;;;;;6224701;28;20071;-68
2022/08/07 03:15:23;;;;;;;0.50;0.40;;;24.00;51.10;;;;;;6245853;28;20017;-68
2022/08/07 03:18:25;;;;;;;0.80;0.60;;;24.00;51.30;;;;;;6235579;28;20030;-68
2022/08/07 03:21:26;;;;;;;0.57;0.40;;;24.00;51.40;;;;;;6221303;28;20134;-68
2022/08/07 03:24:27;;;;;;;1.20;0.55;;;24.00;51.20;;;;;;6234115;28;20046;-68
2022/08/07 03:27:28;;;;;;;0.43;0.43;;;24.00;51.90;;;;;;6221067;28;20057;-68
2022/08/07 03:30:31;;;;;;;0.45;0.45;;;24.00;51.10;;;;;;6221375;28;20370;-67
2022/08/07 03:33:32;;;;;;;0.70;0.50;;;24.00;51.90;;;;;;6220809;28;20033;-68
2022/08/07 03:36:33;;;;;;;0.95;0.40;;;24.00;51.20;;;;;;6221146;28;20026;-68
2022/08/07 03:39:35;;;;;;;0.57;0.55;;;24.00;51.20;;;;;;6244384;28;20029;-67
2022/08/07 03:42:36;;;;;;;0.63;0.50;;;24.00;51.20;;;;;;6244867;28;20611;-68
2022/08/07 03:45:37;;;;;;;0.68;0.50;;;24.00;51.20;;;;;;6221323;28;20109;-68
2022/08/07 03:48:38;;;;;;;0.35;0.30;;;23.90;51.20;;;;;;6229594;28;20060;-68
2022/08/07 03:51:40;;;;;;;0.40;0.35;;;24.00;51.20;;;;;;6246910;28;20075;-68
2022/08/07 03:54:41;;;;;;;0.57;0.50;;;24.00;51.30;;;;;;6230325;28;20388;-67
2022/08/07 03:57:42;;;;;;;0.90;0.50;;;23.90;51.20;;;;;;6221265;28;20034;-68
2022/08/07 04:00:45;;;;;;;0.60;0.40;;;24.00;51.30;;;;;;6232790;28;20481;-67
2022/08/07 04:03:46;;;;;;;0.47;0.40;;;24.00;51.30;;;;;;6210748;28;20056;-68
2022/08/07 04:06:47;;;;;;;0.50;0.40;;;24.00;51.30;;;;;;6243605;28;20030;-68
2022/08/07 04:09:49;;;;;;;0.65;0.45;;;24.00;51.40;;;;;;6229738;28;20499;-68
2022/08/07 04:12:50;;;;;;;0.80;0.43;;;24.00;51.30;;;;;;6220379;28;20105;-68
2022/08/07 04:15:51;;;;;;;0.55;0.30;;;23.90;51.30;;;;;;6243177;28;20030;-67
2022/08/07 04:18:52;;;;;;;0.43;0.40;;;23.90;51.30;;;;;;6238626;28;20503;-68
2022/08/07 04:21:53;;;;;;;0.95;0.38;;;23.90;51.30;;;;;;6219955;28;20125;-68
2022/08/07 04:24:54;;;;;;;0.50;0.50;;;23.90;51.30;;;;;;6233305;28;20045;-68
2022/08/07 04:27:55;;;;;;;0.60;0.47;;;23.90;51.40;;;;;;6244610;28;20468;-68
2022/08/07 04:30:55;;;;;;;0.40;0.40;;;23.90;51.30;;;;;;6222727;28;20033;-68
2022/08/07 04:33:57;;;;;;;0.52;0.40;;;23.90;51.30;;;;;;6219015;28;20088;-68
2022/08/07 04:36:58;;;;;;;0.32;0.32;;;23.90;51.30;;;;;;6219832;28;20029;-68
2022/08/07 04:39:59;;;;;;;0.38;0.38;;;23.90;51.40;;;;;;6232081;28;20050;-67
2022/08/07 04:43:00;;;;;;;1.58;0.50;;;23.90;51.40;;;;;;6244329;28;20074;-68
2022/08/07 04:46:07;;;;;;;0.30;0.30;;;23.90;51.40;;;;;;6223427;28;20048;-68
2022/08/07 04:49:13;;;;;;;0.63;0.40;;;23.90;51.40;;;;;;6223342;28;20028;-67
2022/08/07 04:52:32;;;;;;;0.40;0.40;;;23.90;51.40;;;;;;6244119;28;20046;-67
2022/08/07 04:55:47;;;;;;;0.82;0.52;;;23.90;51.30;;;;;;6228487;28;20726;-69
2022/08/07 05:02:57;;;;;;;0.30;0.30;;;23.90;51.50;;;;;;6199791;28;20030;-68
2022/08/07 05:06:06;;;;;;;0.45;0.40;;;23.90;51.40;;;;;;6228302;28;20108;-68
2022/08/07 05:09:15;;;;;;;0.77;0.50;;;23.80;50.70;;;;;;6242178;28;20034;-68
2022/08/07 05:12:22;;;;;;;0.40;0.40;;;23.80;49.30;;;;;;6220266;28;20018;-68
2022/08/07 05:15:36;;;;;;;0.52;0.30;;;24.00;48.80;;;;;;6231015;28;20033;-68
2022/08/07 05:18:46;;;;;;;0.40;0.40;;;24.10;48.50;;;;;;6243102;28;20026;-67
2022/08/07 05:21:50;;;;;;;0.50;0.40;;;24.20;48.20;;;;;;6221623;28;20151;-68
2022/08/07 05:24:54;;;;;;;0.60;0.50;;;24.20;47.90;;;;;;6224439;28;20041;-67
2022/08/07 05:27:56;;;;;;;0.50;0.50;;;24.30;47.80;;;;;;6243123;28;20476;-68
2022/08/07 05:30:58;;;;;;;0.52;0.30;;;24.40;47.80;;;;;;6229253;28;20021;-68
2022/08/07 05:34:00;;;;;;;0.60;0.32;;;24.40;47.60;;;;;;6218430;28;20574;-68
2022/08/07 05:37:02;;;;;;;0.50;0.40;;;24.40;47.50;;;;;;6218104;28;20473;-67
2022/08/07 05:40:03;;;;;;;0.60;0.43;;;24.40;47.30;;;;;;6222952;28;20116;-68
2022/08/07 05:43:04;;;;;;;0.50;0.50;;;24.50;47.30;;;;;;6243353;28;20082;-68
2022/08/07 05:46:05;;;;;;;0.65;0.50;;;24.50;47.20;;;;;;6229985;28;20032;-68
2022/08/07 05:49:08;;;;;;;0.50;0.40;;;24.50;47.10;;;;;;6218133;28;20508;-68
2022/08/07 05:52:08;;;;;;;0.80;0.40;;;24.50;46.90;;;;;;6238463;28;20049;-68
2022/08/07 05:55:09;;;;;;;0.77;0.60;;;24.50;46.90;;;;;;6237773;28;20068;-67
2022/08/07 05:58:11;;;;;;;0.77;0.40;;;24.50;46.80;;;;;;6217974;28;20026;-68
2022/08/07 06:01:13;;;;;;;0.57;0.30;;;24.60;46.80;;;;;;6209833;28;20034;-68
2022/08/07 06:04:15;;;;;;;0.50;0.50;;;24.50;46.70;;;;;;6193655;28;20026;-68
2022/08/07 06:07:17;;;;;;;0.75;0.40;;;24.60;46.70;;;;;;6232057;28;20061;-68
2022/08/07 06:10:18;;;;;;;0.50;0.40;;;24.60;46.60;;;;;;6239607;28;20542;-68
2022/08/07 06:13:19;;;;;;;0.43;0.43;;;24.60;46.70;;;;;;6217993;28;20058;-68
2022/08/07 06:16:22;;;;;;;0.70;0.45;;;24.60;46.50;;;;;;6227770;28;20014;-68
2022/08/07 06:19:24;;;;;;;0.52;0.40;;;24.60;46.50;;;;;;6242214;28;20041;-68
2022/08/07 06:22:25;;;;;;;0.50;0.40;;;24.60;46.40;;;;;;6223246;28;20510;-68
2022/08/07 06:25:26;;;;;;;0.40;0.40;;;24.60;46.40;;;;;;6220449;28;20026;-68
2022/08/07 06:28:27;;;;;;;0.70;0.50;;;24.60;46.30;;;;;;6243727;28;20042;-68
2022/08/07 06:31:27;;;;;;;0.50;0.35;;;24.60;46.30;;;;;;6237237;28;20021;-68
2022/08/07 06:34:28;;;;;;;0.40;0.40;;;24.60;46.30;;;;;;6222672;28;20018;-68
2022/08/07 06:37:29;;;;;;;0.20;0.20;;;24.60;46.20;;;;;;6222158;28;20033;-68
2022/08/07 06:40:36;;;;;;;0.65;0.40;;;24.60;46.10;;;;;;6223065;28;20087;-68
2022/08/07 06:43:39;;;;;;;0.73;0.43;;;24.60;46.10;;;;;;6248927;28;20030;-68
2022/08/07 06:46:41;;;;;;;0.85;0.40;;;24.60;46.10;;;;;;6238973;28;20064;-68
2022/08/07 06:49:43;;;;;;;0.35;0.30;;;24.60;46.00;;;;;;6222055;28;20026;-68
2022/08/07 06:52:51;;;;;;;0.52;0.32;;;24.60;46.00;;;;;;6240577;28;20176;-68
2022/08/07 06:55:54;;;;;;;0.30;0.30;;;24.60;45.90;;;;;;6247281;28;20444;-68
2022/08/07 06:58:55;;;;;;;0.32;0.30;;;24.60;45.90;;;;;;6222223;28;20108;-67
2022/08/07 07:01:57;;;;;;;1.05;0.40;;;24.60;45.90;;;;;;6230487;28;20055;-68
2022/08/07 07:04:58;;;;;;;0.50;0.50;;;24.60;45.80;;;;;;6246570;28;20017;-68
2022/08/07 07:07:59;;;;;;;0.40;0.40;;;24.60;45.90;;;;;;6229475;28;20038;-68
2022/08/07 07:11:02;;;;;;;1.42;0.32;;;24.60;45.70;;;;;;6221879;28;20393;-68
2022/08/07 07:14:04;;;;;;;1.05;0.40;;;24.60;45.60;;;;;;6197317;28;20102;-68
2022/08/07 07:17:14;;;;;;;0.43;0.30;;;24.60;45.70;;;;;;6213569;28;20452;-68
2022/08/07 07:20:30;;;;;;;0.40;0.40;;;24.60;45.70;;;;;;6246127;28;20480;-68
2022/08/07 07:23:32;;;;;;;0.20;0.20;;;24.60;45.70;;;;;;6225671;28;20123;-68
2022/08/07 07:26:35;;;;;;;0.80;0.50;;;24.60;45.60;;;;;;6223908;28;20072;-68
2022/08/07 07:29:38;;;;;;;0.43;0.38;;;24.60;45.60;;;;;;6245763;28;20025;-68
2022/08/07 07:32:41;;;;;;;0.65;0.40;;;24.70;45.70;;;;;;6231947;28;20030;-68
2022/08/07 07:35:44;;;;;;;0.30;0.30;;;24.60;45.60;;;;;;6219127;28;20432;-68
2022/08/07 07:38:46;;;;;;;0.40;0.40;;;24.60;45.60;;;;;;6239874;28;20431;-68
2022/08/07 07:41:49;;;;;;;0.63;0.50;;;24.60;45.50;;;;;;6243194;28;20077;-69
2022/08/07 07:44:52;;;;;;;0.30;0.30;;;24.70;45.50;;;;;;6221222;28;20104;-68
2022/08/07 07:47:54;;;;;;;0.30;0.30;;;24.70;45.60;;;;;;6246347;28;20129;-68
2022/08/07 07:50:55;;;;;;;0.50;0.40;;;24.70;45.50;;;;;;6245427;28;20076;-68
2022/08/07 07:53:57;;;;;;;0.50;0.20;;;24.60;45.40;;;;;;6226781;28;20026;-67
2022/08/07 07:56:59;;;;;;;0.43;0.40;;;24.60;45.30;;;;;;6222416;28;20149;-68
2022/08/07 08:00:01;;;;;;;0.30;0.30;;;24.70;45.50;;;;;;6245503;28;20060;-68
2022/08/07 08:03:08;;;;;;;1.00;0.30;;;24.70;45.40;;;;;;6215635;28;20026;-68
2022/08/07 08:06:09;;;;;;;0.50;0.40;;;24.70;45.30;;;;;;6245732;28;20021;-68
2022/08/07 08:09:11;;;;;;;0.25;0.25;;;24.70;45.40;;;;;;6226399;28;20030;-67
2022/08/07 08:12:12;;;;;;;0.20;0.20;;;24.70;45.20;;;;;;6222178;28;20057;-68
2022/08/07 08:15:13;;;;;;;0.47;0.30;;;24.60;45.10;;;;;;6244509;28;20064;-68
2022/08/07 08:18:14;;;;;;;0.20;0.20;;;24.70;45.30;;;;;;6235524;28;20034;-68
2022/08/07 08:28:03;;;;;;;0.20;0.20;;;24.70;45.10;;;;;;6238562;28;20045;-67
2022/08/07 08:31:07;;;;;;;0.22;0.22;;;24.70;45.20;;;;;;6219875;28;20022;-68
2022/08/07 08:34:09;;;;;;;0.30;0.30;;;24.60;45.90;;;;;;6219232;28;20476;-69
2022/08/07 08:37:11;;;;;;;0.28;0.28;;;24.50;46.30;;;;;;6220033;28;20064;-68
2022/08/07 08:40:29;;;;;;;0.30;0.30;;;24.40;46.70;;;;;;6242871;28;20029;-68
2022/08/07 08:43:41;;;;;;;0.30;0.30;;;24.30;46.90;;;;;;6236760;28;20034;-68
2022/08/07 08:47:25;;;;;;;0.28;0.28;;;24.30;47.20;;;;;;6219630;28;20044;-68
2022/08/07 08:50:33;;;;;;;0.40;0.40;;;24.30;47.80;;;;;;6243177;28;20120;-68
2022/08/07 08:53:46;;;;;;;0.55;0.40;;;24.20;48.00;;;;;;6238110;28;20068;-68
2022/08/07 08:56:51;;;;;;;0.40;0.40;;;24.20;48.00;;;;;;6217523;28;20084;-68
2022/08/07 09:00:05;;;;;;;0.43;0.40;;;24.20;48.00;;;;;;6216517;28;20377;-68
2022/08/07 09:03:32;;;;;;;0.55;0.30;;;24.20;48.20;;;;;;6193416;28;20120;-67
2022/08/07 09:06:52;;;;;;;0.32;0.32;;;24.20;48.30;;;;;;6201806;28;20113;-68
2022/08/07 09:10:26;;;;;;;0.40;0.30;;;24.20;48.60;;;;;;6213625;28;20058;-67
2022/08/07 09:14:02;;;;;;;0.40;0.30;;;24.20;48.70;;;;;;6214586;28;20185;-68
2022/08/07 09:17:45;;;;;;;0.40;0.40;;;24.20;48.80;;;;;;6204122;28;20092;-68
2022/08/07 09:21:10;;;;;;;0.35;0.30;;;24.10;48.70;;;;;;6215945;28;20030;-69
2022/08/07 09:24:28;;;;;;;0.30;0.30;;;24.10;48.80;;;;;;6215347;28;20088;-68
2022/08/07 09:27:50;;;;;;;0.47;0.40;;;24.10;49.00;;;;;;6204802;28;20054;-68
2022/08/07 09:31:01;;;;;;;0.30;0.30;;;24.10;49.60;;;;;;6236296;28;20022;-68
2022/08/07 09:34:24;;;;;;;0.30;0.30;;;24.10;49.00;;;;;;6217257;28;20084;-68
2022/08/07 09:37:39;;;;;;;0.75;0.32;;;24.10;49.00;;;;;;6217281;28;20025;-68
2022/08/07 09:41:06;;;;;;;0.40;0.40;;;24.10;49.00;;;;;;6235673;28;20562;-68
2022/08/07 09:44:19;;;;;;;0.38;0.38;;;24.10;49.00;;;;;;6239433;28;20103;-67
2022/08/07 09:47:37;;;;;;;0.40;0.32;;;24.10;49.00;;;;;;6242013;28;20030;-68
2022/08/07 09:51:18;;;;;;;0.35;0.35;;;24.10;49.10;;;;;;6225204;28;20030;-68
2022/08/07 09:54:28;;;;;;;0.30;0.30;;;24.10;49.20;;;;;;6213678;28;20068;-67
2022/08/07 09:58:22;;;;;;;0.73;0.40;;;24.10;49.30;;;;;;6217884;28;20022;-68
2022/08/07 10:01:56;;;;;;;0.40;0.30;;;24.10;49.30;;;;;;6161534;28;20038;-68
2022/08/07 10:05:24;;;;;;;0.30;0.30;;;24.00;49.20;;;;;;6211278;28;20025;-68
2022/08/07 10:09:17;;;;;;;0.30;0.30;;;24.10;50.10;;;;;;6242233;28;20041;-67
2022/08/07 10:12:18;;;;;;;0.47;0.32;;;24.00;49.40;;;;;;6195237;28;20109;-68
2022/08/07 10:15:41;;;;;;;2.13;0.28;;;24.00;49.40;;;;;;6214660;28;20075;-68
2022/08/07 10:19:18;;;;;;;0.55;0.22;;;24.00;49.40;;;;;;6241845;28;20030;-67
2022/08/07 10:22:45;;;;;;;0.32;0.30;;;24.00;49.50;;;;;;6193446;28;20109;-68
2022/08/07 10:26:14;;;;;;;0.43;0.40;;;24.00;49.50;;;;;;6218743;28;20338;-68
2022/08/07 10:29:17;;;;;;;0.38;0.38;;;24.00;49.50;;;;;;6242611;28;20022;-68
2022/08/07 10:32:44;;;;;;;0.28;0.28;;;24.00;49.50;;;;;;6203449;28;20484;-68
2022/08/07 10:36:18;;;;;;;0.20;0.20;;;24.00;49.60;;;;;;6217298;28;20033;-68
2022/08/07 10:39:32;;;;;;;0.25;0.20;;;24.00;49.60;;;;;;6217038;28;20401;-67
2022/08/07 10:42:41;;;;;;;0.30;0.30;;;24.00;49.70;;;;;;6193740;28;20076;-68
2022/08/07 10:45:48;;;;;;;0.30;0.30;;;24.00;49.70;;;;;;6212188;28;20018;-67
2022/08/07 10:49:13;;;;;;;0.38;0.30;;;24.00;49.70;;;;;;6242411;28;20087;-67
2022/08/07 10:52:44;;;;;;;0.32;0.32;;;24.00;49.80;;;;;;6220469;28;20030;-68
2022/08/07 10:55:52;;;;;;;0.65;0.20;;;24.00;49.80;;;;;;6225415;28;20022;-67
2022/08/07 10:59:16;;;;;;;0.73;0.40;;;24.00;49.80;;;;;;6242181;28;20036;-68
2022/08/07 11:02:43;;;;;;;0.30;0.30;;;24.00;49.90;;;;;;6186173;28;20096;-68
2022/08/07 11:06:12;;;;;;;0.47;0.30;;;23.90;49.80;;;;;;6226145;28;20018;-68
2022/08/07 11:09:28;;;;;;;0.30;0.30;;;24.00;49.90;;;;;;6239138;28;20053;-68
2022/08/07 11:12:41;;;;;;;0.65;0.25;;;23.90;49.90;;;;;;6220186;28;20045;-68
2022/08/07 11:15:47;;;;;;;0.30;0.30;;;23.90;49.90;;;;;;6219289;28;20046;-68
2022/08/07 11:18:53;;;;;;;0.30;0.30;;;23.90;50.00;;;;;;6222349;28;20544;-68
2022/08/07 11:22:23;;;;;;;0.20;0.20;;;23.90;50.00;;;;;;6230840;28;20029;-68
2022/08/07 11:25:35;;;;;;;0.30;0.30;;;23.90;50.00;;;;;;6219660;28;20304;-68
2022/08/07 11:28:44;;;;;;;0.20;0.20;;;23.90;50.00;;;;;;6221105;28;20092;-68
2022/08/07 11:32:08;;;;;;;0.20;0.20;;;23.90;50.00;;;;;;6225622;28;20034;-69
2022/08/07 11:35:15;;;;;;;0.82;0.50;;;23.90;50.00;;;;;;6220401;28;20022;-68
2022/08/07 11:38:20;;;;;;;1.23;0.40;;;23.90;49.80;;;;;;6221240;28;20022;-70
2022/08/07 11:41:27;;;;;;;4.57;0.47;;;23.90;50.00;;;;;;6229163;28;20037;-68
2022/08/07 11:44:45;;;;;;;1.17;0.30;;;24.00;50.80;;;;;;6245930;28;20040;-67
2022/08/07 11:47:55;;;;;;;1.75;0.43;;;24.00;52.20;;;;;;6227653;28;20037;-68
2022/08/07 11:51:19;;;;;;;2.25;0.30;;;24.00;51.00;;;;;;6223679;28;20547;-68
2022/08/07 11:54:57;;;;;;;0.82;0.38;;;24.00;51.00;;;;;;6242876;28;20041;-68
2022/08/07 11:58:29;;;;;;;0.43;0.30;;;24.00;50.90;;;;;;6233839;28;20080;-68
2022/08/07 12:01:52;;;;;;;0.70;0.28;;;23.90;50.70;;;;;;6231392;28;20100;-67
2022/08/07 12:05:26;;;;;;;0.75;0.50;;;23.90;50.80;;;;;;6243653;28;20026;-67
2022/08/07 12:08:35;;;;;;;0.40;0.32;;;23.90;50.70;;;;;;6219718;28;20531;-67
2022/08/07 12:12:03;;;;;;;0.95;0.40;;;23.90;50.60;;;;;;6224324;28;20036;-67
2022/08/07 12:15:22;;;;;;;1.20;0.50;;;23.90;50.70;;;;;;6243823;28;20034;-68
2022/08/07 12:18:40;;;;;;;1.13;0.40;;;23.90;50.60;;;;;;6225945;28;20080;-68
2022/08/07 12:21:42;;;;;;;0.40;0.30;;;23.90;50.60;;;;;;6223658;28;20614;-70
2022/08/07 12:29:10;;;;;;;0.47;0.30;;;23.90;50.60;;;;;;6222740;28;20053;-67
2022/08/07 12:32:51;;;;;;;0.52;0.32;;;23.90;50.60;;;;;;6217666;28;20028;-68
2022/08/07 12:35:53;;;;;;;1.15;0.45;;;23.90;50.50;;;;;;6213182;28;20042;-66
2022/08/07 12:38:55;;;;;;;0.77;0.50;;;23.90;50.40;;;;;;6238997;28;20025;-68
2022/08/07 12:41:58;;;;;;;2.45;0.50;;;23.90;50.40;;;;;;6238667;28;20476;-68
2022/08/07 12:45:05;;;;;;;1.05;0.60;;;23.90;50.50;;;;;;6217941;28;20429;-67
2022/08/07 12:48:27;;;;;;;1.15;0.50;;;23.90;50.40;;;;;;6230560;28;20026;-66
2022/08/07 12:51:41;;;;;;;0.70;0.50;;;23.90;50.40;;;;;;6242464;28;20557;-68
2022/08/07 12:54:56;;;;;;;0.57;0.32;;;23.90;50.40;;;;;;6193518;28;20026;-67
2022/08/07 12:57:58;;;;;;;0.52;0.40;;;23.80;50.40;;;;;;6213330;28;20035;-67
2022/08/07 13:01:26;;;;;;;0.88;0.50;;;23.80;50.40;;;;;;6231344;28;20041;-67
2022/08/07 13:04:54;;;;;;;0.50;0.40;;;23.80;50.40;;;;;;6241441;28;20258;-67
2022/08/07 13:07:55;;;;;;;0.40;0.40;;;23.80;50.50;;;;;;6228807;28;20107;-67
2022/08/07 13:11:02;;;;;;;0.63;0.45;;;23.80;50.50;;;;;;6242123;28;20025;-67
2022/08/07 13:14:29;;;;;;;1.60;0.50;;;23.80;50.50;;;;;;6225164;28;20311;-67
2022/08/07 13:17:45;;;;;;;0.80;0.43;;;23.80;50.50;;;;;;6220669;28;20056;-68
2022/08/07 13:20:51;;;;;;;0.38;0.38;;;23.80;50.60;;;;;;6242125;28;20140;-67
2022/08/07 13:23:55;;;;;;;0.90;0.50;;;23.80;50.60;;;;;;6233696;28;20140;-68
2022/08/07 13:27:09;;;;;;;0.50;0.50;;;23.80;50.60;;;;;;6235464;28;20045;-67
2022/08/07 13:30:12;;;;;;;0.90;0.55;;;23.80;50.60;;;;;;6241828;28;20029;-68
2022/08/07 13:33:28;;;;;;;0.50;0.40;;;23.80;50.60;;;;;;6223368;28;20066;-67
2022/08/07 13:36:40;;;;;;;0.50;0.50;;;23.80;50.60;;;;;;6218496;28;20026;-67
2022/08/07 13:39:46;;;;;;;0.70;0.50;;;23.80;50.60;;;;;;6237481;28;20029;-68
2022/08/07 13:42:50;;;;;;;0.73;0.60;;;23.80;50.60;;;;;;6238675;28;20609;-66
2022/08/07 13:45:55;;;;;;;0.82;0.60;;;23.80;50.60;;;;;;6217372;28;20026;-68
2022/08/07 13:48:59;;;;;;;2.50;0.77;;;23.90;50.20;;;;;;6227798;28;20033;-68
2022/08/07 13:52:06;;;;;;;1.40;0.50;;;23.80;50.10;;;;;;6241562;28;20049;-68
2022/08/07 13:55:19;;;;;;;6.13;0.50;;;23.90;51.10;;;;;;6214078;28;20024;-67
2022/08/07 14:01:49;;;;;;;1.20;0.80;;;23.90;51.90;;;;;;6216253;28;20030;-67
2022/08/07 14:04:54;;;;;;;1.83;0.70;;;23.90;51.60;;;;;;6232665;28;20083;-67
2022/08/07 14:07:58;;;;;;;;;;;23.90;51.40;;;;;;6242620;28;20509;-67
2022/08/07 14:11:00;;;;;;;1.52;0.60;;;23.90;51.40;;;;;;6218031;28;19905;-67
2022/08/07 14:14:06;;;;;;;7.75;1.00;;;23.90;51.40;;;;;;6224453;28;20488;-68
2022/08/07 14:17:10;;;;;;;3.38;0.70;;;23.90;51.40;;;;;;6241187;28;20419;-67
2022/08/07 14:20:14;;;;;;;1.30;0.50;;;23.90;52.90;;;;;;6223962;28;20045;-67
2022/08/07 14:23:20;;;;;;;1.03;0.60;;;23.90;52.50;;;;;;6217774;28;20765;-67
2022/08/07 14:26:25;;;;;;;1.60;0.70;;;23.90;51.60;;;;;;6233012;28;20033;-67
2022/08/07 14:29:30;;;;;;;1.05;0.45;;;23.80;51.50;;;;;;6225342;28;20575;-67
2022/08/07 14:32:39;;;;;;;0.45;0.40;;;23.80;51.50;;;;;;6226341;28;20515;-67
2022/08/07 14:35:41;;;;;;;3.40;0.57;;;23.80;51.50;;;;;;6214576;28;20030;-67
2022/08/07 14:38:44;;;;;;;1.55;0.40;;;23.80;51.40;;;;;;6217038;28;20400;-67
2022/08/07 14:41:49;;;;;;;1.02;0.70;;;23.80;51.40;;;;;;6239220;28;20308;-67
2022/08/07 14:44:53;;;;;;;1.77;0.60;;;23.80;51.30;;;;;;6227341;28;20036;-67
2022/08/07 14:47:57;;;;;;;1.35;0.45;;;23.80;51.30;;;;;;6215155;28;20057;-68
2022/08/07 14:51:03;;;;;;;3.15;0.47;;;23.80;51.30;;;;;;6238141;28;20103;-67
2022/08/07 14:54:04;;;;;;;0.60;0.50;;;23.80;51.30;;;;;;6240543;28;20080;-68
2022/08/07 14:57:10;;;;;;;0.50;0.40;;;23.80;51.30;;;;;;6219355;28;20200;-67
2022/08/07 15:00:12;;;;;;;1.00;0.57;;;23.80;51.40;;;;;;6228814;28;20113;-67
2022/08/07 15:03:14;;;;;;;2.03;0.70;;;23.80;51.30;;;;;;6188699;28;20056;-67
2022/08/07 15:06:22;;;;;;;0.85;0.70;;;23.80;51.70;;;;;;6222810;28;20448;-68
2022/08/07 15:09:24;;;;;;;1.05;0.60;;;23.80;51.30;;;;;;6202258;28;20069;-67
2022/08/07 15:12:30;;;;;;;0.93;0.57;;;23.80;51.30;;;;;;6218577;28;20374;-67
2022/08/07 15:15:45;;;;;;;0.35;0.35;;;23.80;51.20;;;;;;6231501;28;20496;-67
2022/08/07 15:18:50;;;;;;;0.77;0.52;;;23.80;51.30;;;;;;6243352;28;20096;-68
2022/08/07 15:21:57;;;;;;;1.20;0.57;;;23.80;51.30;;;;;;6219678;28;20022;-67
2022/08/07 15:25:01;;;;;;;1.55;0.50;;;23.80;51.40;;;;;;6223239;28;20053;-67
2022/08/07 15:28:05;;;;;;;1.55;0.60;;;23.80;51.30;;;;;;6218557;28;20037;-67
2022/08/07 15:31:10;;;;;;;4.90;0.60;;;23.80;51.40;;;;;;6232665;28;20083;-67
2022/08/07 15:34:11;;;;;;;2.83;0.60;;;23.80;51.00;;;;;;6218025;28;20615;-66
2022/08/07 15:37:14;;;;;;;2.33;0.50;;;23.80;49.70;;;;;;6218479;28;20030;-66
2022/08/07 15:40:16;;;;;;;1.13;0.55;;;23.80;51.20;;;;;;6225194;28;20480;-67
2022/08/07 15:43:21;;;;;;;1.98;0.70;;;23.80;51.30;;;;;;6242776;28;20026;-67
2022/08/07 15:46:26;;;;;;;;;;;23.80;51.30;;;;;;6228239;28;20022;-68
2022/08/07 15:49:33;;;;;;;1.20;0.50;;;23.80;51.40;;;;;;6218768;28;19910;-67
2022/08/07 15:52:36;;;;;;;3.80;0.60;;;23.80;51.40;;;;;;6218704;28;20033;-67
2022/08/07 15:55:38;;;;;;;1.45;0.60;;;23.70;51.30;;;;;;6213170;28;20030;-67
2022/08/07 15:58:56;;;;;;;1.73;0.60;;;23.80;51.40;;;;;;6217774;28;20037;-67
2022/08/07 16:02:00;;;;;;;4.88;0.50;;;23.70;51.30;;;;;;6206033;28;20034;-66
2022/08/07 16:05:06;;;;;;;1.70;0.50;;;23.70;51.30;;;;;;6199011;28;20511;-67
2022/08/07 16:08:11;;;;;;;0.40;0.40;;;23.70;51.30;;;;;;6244566;28;20030;-66
2022/08/07 16:11:43;;;;;;;2.93;0.70;;;23.70;51.30;;;;;;6234616;28;20092;-68
2022/08/07 16:15:23;;;;;;;1.45;0.65;;;23.70;51.30;;;;;;6218333;28;20284;-67
2022/08/07 16:18:42;;;;;;;2.42;0.68;;;23.70;51.30;;;;;;6190788;28;20046;-66
2022/08/07 16:22:32;;;;;;;1.92;0.68;;;23.70;51.30;;;;;;6223781;28;20088;-67
2022/08/07 16:26:01;;;;;;;2.33;0.57;;;23.70;51.30;;;;;;6238183;28;20084;-68
2022/08/07 16:29:38;;;;;;;1.05;0.52;;;23.70;51.40;;;;;;6219788;28;20037;-67
2022/08/07 16:32:43;;;;;;;1.45;0.63;;;23.70;51.40;;;;;;6207790;28;20040;-67
2022/08/07 16:36:01;;;;;;;0.50;0.50;;;23.70;51.40;;;;;;6221521;28;20101;-67
2022/08/07 16:39:23;;;;;;;1.27;0.70;;;23.70;51.40;;;;;;6221005;28;20045;-67